EDMO

Oberpfaffenhofen Airport

Germany
TAF EDMO 251400Z 2515/2524 02007KT CAVOK BECMG 2516/2518 09003KT
Issued Valid From Valid To
Sep-25 @ 14:00 UTC
(3 hours ago)
Sep-25 @ 15:00 UTC
(2 hours ago)
Sep-26 @ 00:00 UTC
(in 7 hours)
Expired Click to View Sep-25 @ 15:00 to Sep-25 @ 16:00
TAF EDMO 251400Z 2515/2524 02007KT CAVOK
Wind Visibility Clouds Conditions
20° at 7 knots 10,000+ meters
  • No significant clouds
Becoming Sep-25 @ 16:00 to Sep-26 @ 00:00
BECMG 2516/2518 09003KT
Wind Visibility Clouds Conditions
90° at 3 knots 10,000+ meters
  • No significant clouds
TAF EDMO 251400Z 2515/2524 02007KT CAVOK BECMG 2516/2518 09003KT
Issued Sep-25 @ 14:00 UTC
(3 hours ago)
Valid From Sep-25 @ 15:00 UTC
(2 hours ago)
Valid To Sep-26 @ 00:00 UTC
(in 7 hours)
Sep-25 @ 15:00 - Sep-25 @ 16:00
Wind Visibility
20° at 7 knots 10,000+ meters
Clouds
  • No significant clouds
Conditions
Becoming Sep-25 @ 16:00 - Sep-26 @ 00:00
Wind Visibility
90° at 3 knots 10,000+ meters
Clouds
  • No significant clouds
Conditions